Time;durP1;ratioP1;P1;durP2;ratioP2;P2;SDS_P1;SDS_P2;PMS_P1;PMS_P2;Temp;Humidity;BMP_temperature;BMP_pressure;BME280_temperature;BME280_humidity;BME280_pressure;Samples;Min_cycle;Max_cycle;Signal;HPM_P1;HPM_P2
2022/12/19 00:00:08;;;;;;;16.93;9.37;;;6.30;92.30;;;;;;5095600;28;20219;-96
2022/12/19 00:02:39;;;;;;;14.03;8.67;;;6.40;92.50;;;;;;5096563;28;20179;-96
2022/12/19 00:08:16;;;;;;;16.33;8.03;;;6.40;92.70;;;;;;5092064;28;20238;-96
2022/12/19 00:13:59;;;;;;;10.67;7.57;;;6.50;92.70;;;;;;5110962;28;20222;-96
2022/12/19 00:19:41;;;;;;;11.80;7.50;;;6.60;92.70;;;;;;5112110;28;20216;-96
2022/12/19 00:37:52;;;;;;;10.93;6.77;;;6.80;92.80;;;;;;5095513;28;20185;-96
2022/12/19 00:59:41;;;;;;;11.50;7.03;;;7.00;93.30;;;;;;5091976;28;20213;-95
2022/12/19 01:06:08;;;;;;;12.47;7.00;;;7.00;93.20;;;;;;5069571;28;20233;-96
2022/12/19 01:46:56;;;;;;;;;;;;;;;;;;;;;
2022/12/19 02:43:24;;;;;;;11.27;7.13;;;8.30;94.50;;;;;;4945072;28;20293;-96
2022/12/19 02:47:09;;;;;;;14.57;7.93;;;8.30;95.00;;;;;;4984730;28;20231;-96
2022/12/19 03:06:03;;;;;;;9.07;6.53;;;8.70;94.90;;;;;;5221109;23;20215;-96
2022/12/19 03:30:36;;;;;;;12.90;6.97;;;9.00;94.90;;;;;;5072821;28;20210;-96
2022/12/19 03:52:32;;;;;;;8.90;6.20;;;9.20;94.90;;;;;;5011385;28;20233;-96
2022/12/19 04:01:21;;;;;;;10.67;6.77;;;9.30;94.80;;;;;;5035562;28;20197;-96
2022/12/19 04:04:09;;;;;;;10.97;7.13;;;9.30;94.80;;;;;;5028516;28;20301;-96
2022/12/19 04:09:58;;;;;;;9.70;6.37;;;9.40;94.90;;;;;;4991507;28;20230;-96
2022/12/19 04:12:42;;;;;;;11.57;6.53;;;9.40;95.00;;;;;;4986483;28;20208;-95
2022/12/19 04:15:16;;;;;;;10.40;6.37;;;9.40;94.90;;;;;;5002633;28;20277;-96
2022/12/19 04:17:56;;;;;;;7.93;4.93;;;9.50;95.00;;;;;;5002839;28;20212;-95
2022/12/19 04:20:30;;;;;;;13.07;6.97;;;9.50;95.00;;;;;;5003702;28;20221;-95
2022/12/19 04:23:06;;;;;;;9.27;6.03;;;9.50;95.00;;;;;;5018642;28;20200;-95
2022/12/19 04:25:38;;;;;;;8.23;6.20;;;9.60;95.20;;;;;;5010611;28;20197;-96
2022/12/19 04:28:43;;;;;;;10.27;7.03;;;9.60;95.20;;;;;;5012362;28;20201;-95
2022/12/19 04:31:14;;;;;;;10.70;5.63;;;9.60;95.10;;;;;;5010599;28;20292;-95
2022/12/19 04:33:44;;;;;;;8.40;5.53;;;9.60;95.00;;;;;;5011407;28;20249;-96
2022/12/19 04:36:20;;;;;;;8.73;6.20;;;9.60;95.10;;;;;;5011684;28;20190;-96
2022/12/19 04:38:54;;;;;;;9.93;6.23;;;9.70;95.00;;;;;;5010911;28;20298;-96
2022/12/19 04:41:24;;;;;;;8.73;6.00;;;9.70;95.00;;;;;;5002858;28;20205;-96
2022/12/19 04:43:59;;;;;;;8.73;6.00;;;9.70;94.90;;;;;;5047478;28;20223;-95
2022/12/19 04:46:34;;;;;;;9.47;6.00;;;9.80;95.00;;;;;;5042474;28;20213;-96
2022/12/19 04:49:03;;;;;;;9.03;5.77;;;9.80;95.00;;;;;;5054524;28;20258;-95
2022/12/19 04:51:31;;;;;;;7.13;5.37;;;9.80;94.80;;;;;;5045457;28;20200;-95
2022/12/19 04:54:00;;;;;;;8.87;5.93;;;9.80;94.70;;;;;;5053743;28;20203;-95
2022/12/19 04:56:27;;;;;;;10.00;5.90;;;9.90;94.70;;;;;;5061523;28;20214;-96
2022/12/19 04:59:04;;;;;;;10.30;6.33;;;9.90;95.00;;;;;;5061230;28;20648;-95
2022/12/19 05:01:34;;;;;;;8.77;5.47;;;9.90;94.90;;;;;;5059549;28;20234;-95
2022/12/19 05:04:03;;;;;;;12.30;6.90;;;10.00;94.30;;;;;;5056281;28;20295;-95
2022/12/19 05:06:31;;;;;;;13.00;6.43;;;10.00;94.40;;;;;;5056800;28;20207;-96
2022/12/19 05:09:04;;;;;;;10.80;5.97;;;10.00;94.40;;;;;;5056670;28;20231;-96
2022/12/19 05:11:33;;;;;;;9.50;5.90;;;10.00;94.30;;;;;;5057399;28;20207;-96
2022/12/19 05:14:07;;;;;;;14.90;7.40;;;10.00;94.50;;;;;;5054466;28;20239;-95
2022/12/19 05:16:35;;;;;;;14.63;6.83;;;10.10;94.20;;;;;;5048231;28;20654;-94
2022/12/19 05:19:04;;;;;;;11.47;6.70;;;10.10;94.10;;;;;;5054205;28;20200;-95
2022/12/19 05:21:47;;;;;;;16.00;7.13;;;10.10;94.20;;;;;;5062809;28;20204;-95
2022/12/19 05:24:27;;;;;;;8.47;6.03;;;10.10;94.20;;;;;;5061017;28;20223;-96
2022/12/19 05:27:02;;;;;;;9.87;5.77;;;10.20;94.20;;;;;;5056929;28;20204;-96
2022/12/19 05:29:35;;;;;;;10.93;6.80;;;10.20;94.10;;;;;;5058677;28;20224;-96
2022/12/19 05:32:02;;;;;;;11.90;6.80;;;10.20;94.30;;;;;;5061587;28;20207;-96
2022/12/19 05:34:34;;;;;;;11.30;6.43;;;10.20;94.10;;;;;;5060208;28;20211;-96
2022/12/19 05:37:04;;;;;;;15.67;7.23;;;10.20;94.00;;;;;;5064320;28;20237;-96
2022/12/19 05:39:46;;;;;;;9.47;5.87;;;10.20;94.00;;;;;;5072304;28;20208;-96
2022/12/19 05:42:15;;;;;;;12.27;6.53;;;10.20;94.00;;;;;;5061608;28;20212;-95
2022/12/19 05:45:06;;;;;;;11.53;6.80;;;10.30;94.00;;;;;;5062552;28;20243;-96
2022/12/19 05:47:39;;;;;;;11.10;5.67;;;10.30;94.10;;;;;;5062920;28;20211;-96
2022/12/19 05:50:10;;;;;;;12.27;6.00;;;10.30;94.00;;;;;;5061157;28;20306;-96
2022/12/19 05:52:44;;;;;;;11.23;6.20;;;10.40;93.90;;;;;;5049690;28;20204;-95
2022/12/19 05:55:21;;;;;;;9.87;5.83;;;10.40;93.90;;;;;;5057319;28;20253;-96
2022/12/19 05:57:59;;;;;;;11.07;5.73;;;10.40;93.80;;;;;;5058710;28;20295;-96
2022/12/19 06:00:29;;;;;;;11.00;5.90;;;10.40;93.80;;;;;;5057631;28;20228;-96
2022/12/19 06:03:14;;;;;;;9.20;5.30;;;10.40;93.70;;;;;;5061052;28;20299;-96
2022/12/19 06:05:43;;;;;;;9.77;5.60;;;10.50;93.80;;;;;;5059534;28;20258;-96
2022/12/19 06:08:12;;;;;;;10.43;5.70;;;10.50;93.80;;;;;;5044500;28;20227;-96
2022/12/19 06:10:40;;;;;;;10.97;5.93;;;10.50;93.80;;;;;;5058534;28;20224;-95
2022/12/19 06:13:20;;;;;;;9.07;5.67;;;10.50;93.70;;;;;;5058166;28;20208;-95
2022/12/19 06:15:58;;;;;;;12.30;7.13;;;10.50;93.80;;;;;;5060226;28;20200;-96
2022/12/19 06:18:34;;;;;;;8.77;4.97;;;10.50;93.80;;;;;;5059439;28;20635;-96
2022/12/19 06:21:24;;;;;;;8.50;4.83;;;10.60;93.80;;;;;;5059318;28;20204;-96
2022/12/19 06:24:02;;;;;;;8.80;5.53;;;10.60;93.80;;;;;;5059113;28;20223;-95
2022/12/19 06:26:30;;;;;;;10.10;5.63;;;10.60;93.80;;;;;;5057769;28;20616;-96
2022/12/19 06:28:59;;;;;;;12.47;6.43;;;10.70;93.80;;;;;;5041212;28;20254;-96
2022/12/19 06:31:34;;;;;;;7.40;5.30;;;10.70;93.60;;;;;;5055990;28;20212;-96
2022/12/19 06:34:25;;;;;;;8.63;5.60;;;10.70;93.60;;;;;;5040302;28;20215;-96
2022/12/19 06:36:53;;;;;;;9.80;5.57;;;10.70;93.60;;;;;;5054296;28;20196;-96
2022/12/19 06:39:27;;;;;;;12.03;6.20;;;10.70;93.40;;;;;;5072518;28;20271;-96
2022/12/19 06:44:47;;;;;;;7.07;4.70;;;10.80;93.60;;;;;;5061006;28;20202;-96
2022/12/19 06:47:19;;;;;;;9.00;5.00;;;10.80;93.60;;;;;;5040226;28;20204;-96
2022/12/19 06:49:51;;;;;;;8.17;4.77;;;10.80;93.60;;;;;;5042834;28;20232;-96
2022/12/19 06:52:26;;;;;;;6.17;4.70;;;10.80;93.60;;;;;;5059457;28;20208;-96
2022/12/19 06:54:56;;;;;;;8.07;5.27;;;10.80;93.60;;;;;;5060866;28;20206;-96
2022/12/19 06:57:25;;;;;;;6.90;4.90;;;10.90;93.60;;;;;;5056833;28;20188;-96
2022/12/19 06:59:59;;;;;;;9.77;5.57;;;10.90;93.50;;;;;;5057514;28;20207;-96
2022/12/19 07:02:36;;;;;;;10.30;5.87;;;10.90;93.50;;;;;;5059301;28;20211;-96
2022/12/19 07:05:12;;;;;;;5.67;4.57;;;10.90;93.60;;;;;;5057236;28;20243;-95
2022/12/19 07:07:47;;;;;;;6.20;4.80;;;10.90;93.50;;;;;;5056524;28;20211;-96
2022/12/19 07:10:23;;;;;;;8.73;4.33;;;11.00;93.40;;;;;;5041867;28;20227;-96
2022/12/19 07:13:01;;;;;;;11.60;4.73;;;11.00;93.40;;;;;;5059880;28;20208;-96
2022/12/19 07:15:41;;;;;;;7.07;5.00;;;11.00;93.30;;;;;;5035015;28;20215;-95
2022/12/19 07:18:40;;;;;;;10.90;5.30;;;11.00;93.30;;;;;;5055340;28;20203;-96
2022/12/19 07:21:41;;;;;;;8.10;4.77;;;11.10;93.30;;;;;;5046552;28;20212;-96
2022/12/19 07:24:38;;;;;;;9.10;5.37;;;11.10;93.10;;;;;;5059269;28;20204;-96
2022/12/19 07:27:08;;;;;;;7.73;4.60;;;11.10;93.10;;;;;;5057176;28;20270;-96
2022/12/19 07:29:39;;;;;;;7.00;5.07;;;11.10;93.10;;;;;;5054559;28;20676;-96
2022/12/19 07:32:09;;;;;;;7.73;5.03;;;11.10;93.10;;;;;;5052350;28;20205;-96
2022/12/19 07:34:39;;;;;;;11.63;5.37;;;11.20;93.10;;;;;;5053785;28;20227;-93
2022/12/19 07:37:15;;;;;;;6.17;4.53;;;11.10;92.90;;;;;;5059606;28;20200;-95
2022/12/19 07:39:43;;;;;;;9.83;5.33;;;11.20;92.90;;;;;;5055351;28;20204;-95
2022/12/19 07:42:17;;;;;;;6.40;4.30;;;11.20;93.00;;;;;;5064053;28;20200;-95
2022/12/19 07:44:51;;;;;;;9.20;5.60;;;11.20;93.00;;;;;;5065999;28;20224;-95
2022/12/19 07:47:26;;;;;;;8.50;4.40;;;11.20;93.00;;;;;;5058555;28;20210;-96
2022/12/19 07:50:01;;;;;;;9.90;5.53;;;11.30;93.00;;;;;;5043679;28;20456;-95
2022/12/19 07:52:31;;;;;;;7.57;5.10;;;11.30;93.00;;;;;;5055336;28;20650;-95
2022/12/19 07:55:01;;;;;;;9.97;5.73;;;11.30;92.90;;;;;;5065341;28;20207;-95
2022/12/19 07:57:31;;;;;;;9.63;4.87;;;11.30;93.00;;;;;;5047329;28;20196;-94
2022/12/19 08:00:25;;;;;;;7.77;4.77;;;11.30;93.00;;;;;;5063383;28;20621;-95
2022/12/19 08:02:57;;;;;;;10.47;5.07;;;11.40;93.10;;;;;;5054887;28;20230;-95
2022/12/19 08:05:33;;;;;;;9.33;5.50;;;11.40;93.00;;;;;;5060491;28;20201;-95
2022/12/19 08:08:20;;;;;;;7.73;4.63;;;11.30;92.90;;;;;;5064892;28;20200;-95
2022/12/19 08:10:50;;;;;;;6.80;4.30;;;11.40;93.00;;;;;;5071303;28;20688;-95
2022/12/19 08:13:18;;;;;;;14.30;5.67;;;11.40;92.90;;;;;;5073959;28;20193;-95
2022/12/19 08:16:08;;;;;;;9.93;5.23;;;11.40;92.90;;;;;;5068607;28;20239;-94
2022/12/19 08:19:09;;;;;;;12.53;5.83;;;11.40;92.90;;;;;;5072701;28;20211;-96
2022/12/19 08:24:58;;;;;;;8.47;4.73;;;11.40;92.70;;;;;;5047575;28;20211;-94
2022/12/19 08:27:38;;;;;;;8.83;5.13;;;11.40;92.60;;;;;;5072533;28;20226;-96
2022/12/19 08:30:12;;;;;;;9.30;5.17;;;11.40;92.50;;;;;;5070665;28;20220;-95
2022/12/19 08:32:45;;;;;;;8.90;4.73;;;11.50;92.60;;;;;;5068960;28;20180;-95
2022/12/19 08:35:14;;;;;;;11.30;5.83;;;11.50;92.40;;;;;;5073253;28;20348;-94
2022/12/19 08:38:05;;;;;;;7.33;4.30;;;11.50;92.30;;;;;;5074277;28;20192;-95
2022/12/19 08:40:39;;;;;;;7.70;4.50;;;11.50;92.40;;;;;;5075704;28;20192;-95
2022/12/19 08:43:23;;;;;;;6.40;4.07;;;11.50;92.40;;;;;;5070346;28;20199;-94
2022/12/19 08:46:11;;;;;;;6.97;4.57;;;11.50;92.40;;;;;;5047923;28;20212;-96
2022/12/19 08:48:47;;;;;;;8.37;4.67;;;11.50;92.40;;;;;;5067035;28;20258;-95
2022/12/19 08:55:00;;;;;;;11.00;5.07;;;11.60;92.50;;;;;;5062763;28;20205;-95
2022/12/19 09:00:52;;;;;;;7.93;4.60;;;11.60;92.50;;;;;;5060967;28;20211;-95
2022/12/19 09:03:44;;;;;;;8.63;4.37;;;11.60;92.40;;;;;;5059918;28;20220;-96
2022/12/19 09:06:42;;;;;;;7.03;3.83;;;11.60;92.50;;;;;;5045730;28;20209;-95
2022/12/19 09:09:37;;;;;;;11.70;4.47;;;11.70;92.40;;;;;;5024840;28;20275;-96
2022/12/19 09:12:10;;;;;;;8.17;4.53;;;11.70;92.50;;;;;;5039843;28;20845;-95
2022/12/19 09:18:14;;;;;;;7.33;4.17;;;11.70;92.50;;;;;;5030338;28;20203;-96
2022/12/19 09:24:03;;;;;;;8.40;4.23;;;11.70;92.50;;;;;;5054262;28;20200;-95
2022/12/19 09:29:38;;;;;;;7.87;4.00;;;11.70;92.50;;;;;;5050171;28;20215;-96
2022/12/19 09:32:14;;;;;;;6.73;4.03;;;11.70;92.60;;;;;;5067337;28;20211;-95
2022/12/19 09:34:57;;;;;;;9.67;4.63;;;11.70;92.70;;;;;;5069671;28;20204;-94
2022/12/19 09:37:28;;;;;;;8.03;4.30;;;11.70;92.70;;;;;;5055154;28;20204;-95
2022/12/19 09:40:03;;;;;;;6.63;3.50;;;11.70;92.70;;;;;;5072926;28;20208;-96
2022/12/19 09:42:50;;;;;;;7.67;4.67;;;11.70;92.80;;;;;;5060525;28;20258;-96
2022/12/19 09:45:44;;;;;;;7.17;4.23;;;11.70;92.90;;;;;;5060676;28;20204;-96
2022/12/19 09:48:14;;;;;;;8.17;4.33;;;11.70;92.90;;;;;;5058485;28;20205;-96
2022/12/19 09:50:58;;;;;;;8.50;4.00;;;11.70;92.90;;;;;;5066882;28;20226;-96
2022/12/19 09:53:33;;;;;;;6.37;3.97;;;11.70;93.20;;;;;;5069212;28;20204;-94
2022/12/19 09:56:03;;;;;;;10.00;3.90;;;11.70;93.10;;;;;;5045491;28;20264;-95
2022/12/19 09:58:37;;;;;;;7.90;4.83;;;11.70;93.30;;;;;;5050442;28;20209;-93
2022/12/19 10:01:17;;;;;;;10.23;5.20;;;11.60;93.60;;;;;;5040803;28;20201;-94
2022/12/19 10:03:54;;;;;;;9.67;4.07;;;11.60;93.60;;;;;;5052120;28;20224;-95
2022/12/19 10:06:39;;;;;;;10.43;4.77;;;11.60;93.90;;;;;;5058285;28;20204;-93
2022/12/19 10:09:13;;;;;;;11.10;4.80;;;11.60;93.70;;;;;;5025456;28;20204;-96
2022/12/19 10:12:11;;;;;;;10.50;5.20;;;11.60;93.80;;;;;;5055805;28;20243;-94
2022/12/19 10:15:01;;;;;;;12.47;5.17;;;11.60;93.90;;;;;;5054362;28;20208;-94
2022/12/19 10:17:38;;;;;;;12.13;5.20;;;11.50;94.00;;;;;;5054517;28;20657;-95
2022/12/19 10:23:33;;;;;;;7.20;4.37;;;11.50;94.00;;;;;;5056075;28;20209;-93
2022/12/19 10:26:06;;;;;;;9.00;4.93;;;11.50;94.10;;;;;;5054642;28;20185;-94
2022/12/19 10:28:58;;;;;;;9.77;4.97;;;11.50;94.10;;;;;;5054289;28;20288;-93
2022/12/19 10:31:38;;;;;;;7.77;4.73;;;11.50;94.30;;;;;;5050976;28;20231;-95
2022/12/19 10:34:16;;;;;;;9.97;5.40;;;11.50;94.20;;;;;;5053222;28;20652;-93
2022/12/19 10:36:51;;;;;;;9.30;4.93;;;11.50;94.20;;;;;;5054933;28;20235;-94
2022/12/19 10:39:29;;;;;;;14.90;6.27;;;11.50;94.30;;;;;;5073597;28;20238;-94
2022/12/19 10:42:11;;;;;;;10.63;6.93;;;11.50;94.30;;;;;;5058229;28;20250;-95
2022/12/19 10:44:42;;;;;;;18.30;12.07;;;11.50;94.40;;;;;;5055641;28;20196;-94
2022/12/19 10:47:16;;;;;;;11.10;7.20;;;11.50;94.30;;;;;;5053898;28;20233;-94
2022/12/19 10:49:44;;;;;;;12.50;6.37;;;11.50;94.30;;;;;;5038502;28;20263;-95
2022/12/19 10:52:15;;;;;;;7.00;4.97;;;11.50;94.30;;;;;;5052762;28;20294;-94
2022/12/19 10:54:53;;;;;;;9.70;5.17;;;11.50;94.30;;;;;;5054072;28;20188;-95
2022/12/19 10:57:25;;;;;;;10.10;4.90;;;11.50;94.30;;;;;;5055629;28;20204;-94
2022/12/19 10:59:59;;;;;;;8.73;4.87;;;11.50;94.30;;;;;;5054256;28;20251;-94
2022/12/19 11:02:42;;;;;;;8.63;4.50;;;11.60;94.30;;;;;;5054127;28;20228;-94
2022/12/19 11:05:25;;;;;;;8.37;4.80;;;11.50;94.30;;;;;;5050221;28;20212;-95
2022/12/19 11:08:24;;;;;;;9.00;4.60;;;11.60;94.50;;;;;;5036934;28;20628;-95
2022/12/19 11:10:57;;;;;;;10.77;5.43;;;11.60;94.50;;;;;;5039689;28;20224;-94
2022/12/19 11:13:30;;;;;;;11.87;5.27;;;11.60;94.40;;;;;;5053686;28;20207;-94
2022/12/19 11:16:03;;;;;;;10.67;5.53;;;11.60;94.30;;;;;;5050817;28;20565;-94
2022/12/19 11:18:37;;;;;;;11.77;5.03;;;11.60;94.50;;;;;;5050074;28;20215;-94
2022/12/19 11:21:07;;;;;;;7.57;4.57;;;11.60;94.50;;;;;;5045696;28;20250;-94
2022/12/19 11:23:50;;;;;;;9.40;4.70;;;11.70;94.50;;;;;;5051265;28;20211;-93
2022/12/19 11:26:35;;;;;;;11.47;5.63;;;11.70;94.50;;;;;;5069564;28;20228;-94
2022/12/19 11:29:21;;;;;;;11.83;6.33;;;11.70;94.40;;;;;;5051694;28;20209;-94
2022/12/19 11:31:56;;;;;;;8.50;4.60;;;11.80;94.40;;;;;;5041210;28;20220;-95
2022/12/19 11:34:28;;;;;;;9.90;4.93;;;11.80;94.40;;;;;;5047985;28;20211;-93
2022/12/19 11:37:09;;;;;;;9.77;5.17;;;11.80;94.40;;;;;;5043091;28;20225;-93
2022/12/19 11:39:46;;;;;;;10.50;4.70;;;11.80;94.40;;;;;;5049339;28;20289;-95
2022/12/19 11:42:24;;;;;;;11.67;5.20;;;11.80;94.20;;;;;;5034095;28;20690;-95
2022/12/19 11:44:58;;;;;;;14.70;5.50;;;11.90;94.20;;;;;;5047338;28;20254;-95
2022/12/19 11:47:36;;;;;;;7.83;4.53;;;11.90;94.20;;;;;;5050767;28;20216;-94
2022/12/19 11:50:11;;;;;;;9.10;5.27;;;11.90;94.10;;;;;;5047732;28;20220;-94
2022/12/19 11:52:46;;;;;;;10.30;4.70;;;11.90;94.10;;;;;;5039277;28;20262;-94
2022/12/19 11:58:23;;;;;;;9.30;4.50;;;12.00;94.00;;;;;;5038017;28;20943;-96
2022/12/19 12:00:58;;;;;;;7.53;4.97;;;12.00;93.90;;;;;;5051295;28;20212;-95
2022/12/19 12:03:58;;;;;;;8.77;4.93;;;12.00;93.80;;;;;;5050281;28;20315;-94
2022/12/19 12:06:32;;;;;;;8.63;4.80;;;12.00;93.90;;;;;;5043472;28;20673;-95
2022/12/19 12:09:06;;;;;;;15.87;5.10;;;12.00;93.80;;;;;;5048811;28;20277;-94
2022/12/19 12:11:42;;;;;;;10.57;4.87;;;12.00;93.80;;;;;;5049276;28;20228;-94
2022/12/19 12:14:19;;;;;;;11.17;5.03;;;12.00;93.80;;;;;;5050493;28;20269;-94
2022/12/19 12:17:19;;;;;;;9.90;5.00;;;12.00;93.80;;;;;;5051759;28;20212;-94
2022/12/19 12:20:10;;;;;;;8.20;4.87;;;12.00;93.80;;;;;;5043919;28;20216;-95
2022/12/19 12:22:55;;;;;;;7.77;4.87;;;12.00;93.80;;;;;;5054824;28;20593;-95
2022/12/19 12:25:33;;;;;;;5.23;3.87;;;12.00;93.70;;;;;;5045020;28;20237;-94
2022/12/19 12:28:19;;;;;;;11.33;4.77;;;12.00;93.60;;;;;;5043246;28;20219;-95
2022/12/19 12:31:01;;;;;;;9.80;5.13;;;12.00;93.70;;;;;;5040364;28;20239;-95
2022/12/19 12:33:36;;;;;;;9.60;5.03;;;12.00;93.70;;;;;;5048976;28;20214;-95
2022/12/19 12:36:16;;;;;;;10.23;4.97;;;12.00;93.60;;;;;;5037705;28;20241;-93
2022/12/19 12:38:57;;;;;;;23.07;7.50;;;12.00;93.60;;;;;;5045486;28;20256;-95
2022/12/19 12:44:27;;;;;;;17.00;7.20;;;12.10;93.70;;;;;;5049182;28;20227;-95
2022/12/19 12:47:11;;;;;;;10.13;4.67;;;12.10;93.50;;;;;;5063818;28;20217;-93
2022/12/19 12:49:44;;;;;;;9.47;4.63;;;12.10;93.50;;;;;;5056685;28;20208;-94
2022/12/19 12:52:17;;;;;;;10.93;5.20;;;12.10;93.40;;;;;;5059459;28;20243;-95
2022/12/19 12:54:50;;;;;;;7.97;4.63;;;12.10;93.40;;;;;;5059059;28;20209;-94
2022/12/19 12:57:37;;;;;;;9.77;5.20;;;12.10;93.40;;;;;;5039424;28;20275;-93
2022/12/19 13:00:24;;;;;;;10.17;5.03;;;12.10;93.40;;;;;;5057886;28;20200;-95
2022/12/19 13:03:09;;;;;;;9.33;4.80;;;12.20;93.40;;;;;;5052470;28;20276;-95
2022/12/19 13:05:53;;;;;;;11.87;5.67;;;12.20;93.40;;;;;;5038502;28;20201;-95
2022/12/19 13:08:30;;;;;;;7.93;4.20;;;12.20;93.30;;;;;;5037967;28;20213;-94
2022/12/19 13:11:07;;;;;;;9.53;4.30;;;12.20;93.10;;;;;;5037958;28;20225;-95
2022/12/19 13:13:57;;;;;;;10.17;5.37;;;12.20;93.00;;;;;;5037777;28;20205;-94
2022/12/19 13:16:50;;;;;;;8.67;4.87;;;12.30;93.20;;;;;;5048313;28;20208;-95
2022/12/19 13:19:22;;;;;;;9.10;4.20;;;12.30;93.00;;;;;;5067450;28;20203;-95
2022/12/19 13:22:18;;;;;;;10.00;4.77;;;12.30;92.80;;;;;;5073409;28;20209;-95
2022/12/19 13:24:50;;;;;;;7.40;4.23;;;12.30;92.70;;;;;;5066395;28;20263;-95
2022/12/19 13:27:41;;;;;;;7.63;3.80;;;12.30;92.60;;;;;;5063406;28;20684;-94
2022/12/19 13:30:25;;;;;;;10.87;4.93;;;12.30;92.60;;;;;;5051244;28;20263;-94
2022/12/19 13:33:12;;;;;;;8.77;4.67;;;12.30;92.50;;;;;;5054508;28;20323;-95
2022/12/19 13:35:46;;;;;;;9.00;4.33;;;12.30;92.30;;;;;;5058004;28;20216;-94
2022/12/19 13:38:22;;;;;;;10.67;4.73;;;12.30;92.20;;;;;;5057970;28;20210;-95
2022/12/19 13:43:44;;;;;;;13.50;5.67;;;12.30;92.10;;;;;;5057131;28;20233;-96
2022/12/19 13:44:01;;;;;;;10.27;5.60;;;12.30;92.10;;;;;;5036882;28;20213;-95
2022/12/19 13:46:41;;;;;;;11.40;5.10;;;12.30;91.90;;;;;;5037548;28;20189;-95
2022/12/19 13:49:28;;;;;;;8.03;4.43;;;12.30;91.90;;;;;;5038046;28;20193;-95
2022/12/19 13:51:58;;;;;;;9.40;4.60;;;12.30;91.90;;;;;;5038123;28;20225;-95
2022/12/19 13:54:28;;;;;;;9.80;4.87;;;12.30;91.90;;;;;;5019746;28;20206;-95
2022/12/19 13:56:59;;;;;;;7.03;4.10;;;12.30;91.90;;;;;;5020256;28;20209;-95
2022/12/19 13:59:33;;;;;;;10.03;4.40;;;12.30;91.90;;;;;;5047823;28;20216;-95
2022/12/19 14:02:08;;;;;;;18.27;6.37;;;12.30;92.00;;;;;;5056631;28;20232;-95
2022/12/19 14:04:36;;;;;;;13.57;4.60;;;12.40;91.90;;;;;;5057166;28;20256;-96
2022/12/19 14:07:42;;;;;;;10.30;5.20;;;12.30;91.90;;;;;;5056672;28;20219;-96
2022/12/19 14:10:18;;;;;;;6.80;4.60;;;12.40;92.00;;;;;;5056695;28;20205;-95
2022/12/19 14:15:39;;;;;;;11.40;5.07;;;12.30;91.90;;;;;;5039392;28;20195;-95
2022/12/19 14:18:18;;;;;;;15.47;4.87;;;12.30;91.90;;;;;;5039776;28;20209;-95
2022/12/19 14:20:49;;;;;;;9.53;4.50;;;12.40;92.00;;;;;;5042278;28;20536;-96
2022/12/19 14:23:22;;;;;;;11.07;4.77;;;12.40;92.10;;;;;;5036903;28;20217;-95
2022/12/19 14:25:55;;;;;;;9.03;4.57;;;12.40;92.10;;;;;;5054956;28;20201;-94
2022/12/19 14:28:28;;;;;;;8.73;4.27;;;12.40;92.10;;;;;;5017643;28;20760;-95
2022/12/19 14:31:07;;;;;;;7.90;3.97;;;12.40;92.00;;;;;;5036314;28;20196;-94
2022/12/19 14:33:39;;;;;;;11.30;4.70;;;12.40;92.00;;;;;;5052625;28;20223;-96
2022/12/19 14:36:08;;;;;;;7.13;4.00;;;12.40;91.90;;;;;;5055776;28;20334;-95
2022/12/19 14:38:39;;;;;;;13.07;5.43;;;12.40;91.90;;;;;;5054955;28;20634;-96
2022/12/19 14:43:37;;;;;;;8.23;4.47;;;12.50;92.10;;;;;;5056264;28;20206;-96
2022/12/19 14:43:58;;;;;;;7.87;4.13;;;12.50;92.10;;;;;;5054752;28;20209;-95
2022/12/19 14:46:33;;;;;;;9.00;4.87;;;12.50;92.00;;;;;;5054963;28;20204;-94
2022/12/19 14:49:01;;;;;;;7.60;4.50;;;12.50;92.00;;;;;;5058457;28;20206;-95
2022/12/19 14:51:36;;;;;;;8.87;4.03;;;12.50;92.00;;;;;;5057385;28;20230;-95
2022/12/19 14:54:23;;;;;;;11.80;4.73;;;12.50;92.00;;;;;;5056933;28;20645;-96
2022/12/19 14:56:56;;;;;;;8.03;4.87;;;12.60;91.90;;;;;;5055020;28;20217;-96
2022/12/19 14:59:35;;;;;;;11.07;5.80;;;12.60;91.70;;;;;;5049183;28;20208;-93
2022/12/19 15:02:22;;;;;;;10.30;4.77;;;12.60;91.80;;;;;;5060148;28;20225;-96
2022/12/19 15:05:13;;;;;;;6.07;4.07;;;12.60;91.70;;;;;;5059142;28;20296;-96
2022/12/19 15:07:46;;;;;;;9.30;4.00;;;12.60;91.60;;;;;;5056681;28;20201;-96
2022/12/19 15:10:18;;;;;;;9.60;4.57;;;12.60;91.60;;;;;;5057063;28;20541;-95
2022/12/19 15:15:47;;;;;;;6.77;4.33;;;12.60;91.70;;;;;;5058541;28;20235;-94
2022/12/19 15:18:26;;;;;;;8.90;4.90;;;12.60;91.50;;;;;;5071435;28;20547;-96
2022/12/19 15:21:07;;;;;;;6.37;3.97;;;12.60;91.60;;;;;;5068693;28;20215;-96
2022/12/19 15:23:51;;;;;;;7.30;4.23;;;12.60;91.50;;;;;;5058409;28;20287;-96
2022/12/19 15:26:29;;;;;;;6.00;3.70;;;12.60;91.50;;;;;;5059200;28;20197;-93
2022/12/19 15:29:00;;;;;;;7.37;4.17;;;12.60;91.60;;;;;;5057404;28;20272;-96
2022/12/19 15:31:37;;;;;;;6.93;4.00;;;12.60;91.70;;;;;;5057666;28;20224;-95
2022/12/19 15:34:24;;;;;;;7.63;4.50;;;12.60;91.70;;;;;;5056618;28;20196;-95
2022/12/19 15:36:55;;;;;;;7.57;4.40;;;12.60;91.70;;;;;;5062394;28;20227;-95
2022/12/19 15:39:30;;;;;;;5.50;3.60;;;12.60;91.70;;;;;;5057608;28;20205;-95
2022/12/19 15:42:05;;;;;;;9.70;4.73;;;12.60;91.70;;;;;;5054095;28;20213;-95
2022/12/19 15:44:41;;;;;;;6.73;4.10;;;12.60;91.70;;;;;;5053804;28;20280;-95
2022/12/19 15:47:25;;;;;;;7.73;4.53;;;12.50;91.70;;;;;;5054678;28;20208;-96
2022/12/19 15:49:54;;;;;;;5.93;3.70;;;12.60;91.70;;;;;;5054478;28;20239;-95
2022/12/19 15:55:20;;;;;;;8.37;4.07;;;12.60;91.70;;;;;;5054701;28;20247;-96
2022/12/19 16:00:58;;;;;;;5.83;3.77;;;12.50;91.70;;;;;;5060359;28;20273;-96
2022/12/19 16:03:28;;;;;;;5.00;3.30;;;12.50;91.70;;;;;;5060112;28;20260;-95
2022/12/19 16:06:13;;;;;;;7.13;3.67;;;12.50;91.60;;;;;;5064398;28;20209;-96
2022/12/19 16:08:48;;;;;;;8.70;4.23;;;12.50;91.70;;;;;;5051480;28;20220;-94
2022/12/19 16:11:22;;;;;;;7.00;3.93;;;12.50;91.60;;;;;;5056489;28;20231;-96
2022/12/19 16:14:01;;;;;;;7.70;4.37;;;12.50;91.70;;;;;;5062572;28;20195;-96
2022/12/19 16:16:35;;;;;;;8.73;4.50;;;12.50;91.60;;;;;;5069498;28;20227;-96
2022/12/19 16:19:28;;;;;;;8.73;4.97;;;12.50;91.60;;;;;;5074385;28;20192;-95
2022/12/19 16:21:59;;;;;;;8.23;4.47;;;12.50;91.70;;;;;;5057227;28;20209;-96
2022/12/19 16:24:31;;;;;;;7.27;4.23;;;12.50;91.60;;;;;;5058916;28;20205;-96
2022/12/19 16:27:07;;;;;;;5.57;3.87;;;12.40;91.60;;;;;;5057266;28;20205;-96
2022/12/19 16:29:37;;;;;;;7.37;4.53;;;12.40;91.80;;;;;;5057971;28;20716;-95
2022/12/19 16:32:12;;;;;;;5.53;4.03;;;12.40;91.70;;;;;;5060323;28;20218;-95
2022/12/19 16:34:43;;;;;;;4.97;3.83;;;12.40;91.80;;;;;;5022022;28;20236;-96
2022/12/19 16:37:18;;;;;;;6.40;4.53;;;12.50;91.80;;;;;;5041212;28;20209;-95
2022/12/19 16:39:49;;;;;;;10.40;5.00;;;12.40;91.60;;;;;;5039300;28;20212;-94
2022/12/19 16:42:21;;;;;;;9.47;5.00;;;12.40;91.80;;;;;;5039462;28;20214;-96
2022/12/19 16:44:52;;;;;;;9.67;5.37;;;12.50;91.70;;;;;;5038663;28;20267;-96
2022/12/19 16:47:23;;;;;;;6.73;3.63;;;12.50;91.80;;;;;;5043653;28;20673;-96
2022/12/19 16:50:00;;;;;;;8.73;4.77;;;12.40;91.70;;;;;;5058331;28;20235;-96
2022/12/19 16:52:28;;;;;;;8.00;5.10;;;12.40;91.80;;;;;;5058771;28;20224;-96
2022/12/19 16:55:08;;;;;;;11.53;4.50;;;12.50;91.90;;;;;;5059428;28;20205;-96
2022/12/19 16:57:57;;;;;;;7.77;4.67;;;12.50;91.90;;;;;;5061881;28;20225;-96
2022/12/19 17:00:54;;;;;;;11.27;4.80;;;12.50;91.90;;;;;;5059489;28;20287;-93
2022/12/19 17:03:41;;;;;;;9.83;5.00;;;12.50;91.90;;;;;;5057527;28;20666;-95
2022/12/19 17:06:16;;;;;;;7.60;4.23;;;12.50;91.80;;;;;;5044947;28;20221;-96
2022/12/19 17:08:50;;;;;;;9.20;4.47;;;12.50;91.80;;;;;;5046045;28;20209;-96
2022/12/19 17:11:27;;;;;;;10.83;5.00;;;12.50;91.70;;;;;;5046592;28;20211;-94
2022/12/19 17:14:12;;;;;;;;;;;;;;;;;;;;;
2022/12/19 17:16:44;;;;;;;8.43;4.87;;;12.50;91.70;;;;;;5058675;28;20698;-96
2022/12/19 17:19:25;;;;;;;8.97;4.40;;;12.50;91.70;;;;;;5068004;28;20204;-96
2022/12/19 17:21:58;;;;;;;9.07;4.53;;;12.50;91.60;;;;;;5066649;28;20200;-96
2022/12/19 17:24:33;;;;;;;9.60;5.03;;;12.50;91.70;;;;;;5061608;28;20201;-93
2022/12/19 17:27:18;;;;;;;6.57;3.93;;;12.50;91.70;;;;;;5063525;28;20207;-96
2022/12/19 17:29:50;;;;;;;9.43;5.13;;;12.50;91.60;;;;;;5059224;28;20211;-96
2022/12/19 17:32:34;;;;;;;9.40;4.80;;;12.50;91.60;;;;;;5064320;28;20221;-95
2022/12/19 17:35:22;;;;;;;7.47;4.47;;;12.50;91.60;;;;;;5061888;28;20224;-96
2022/12/19 17:37:52;;;;;;;7.47;4.53;;;12.50;91.70;;;;;;5058083;28;20200;-94
2022/12/19 17:40:34;;;;;;;5.70;4.20;;;12.50;91.70;;;;;;5061284;28;20208;-95
2022/12/19 17:43:12;;;;;;;12.67;5.93;;;12.40;91.60;;;;;;5064091;28;20222;-96
2022/12/19 17:55:03;;;;;;;7.57;4.80;;;12.40;91.70;;;;;;5046906;28;20211;-96
2022/12/19 17:57:38;;;;;;;11.03;5.00;;;12.50;91.60;;;;;;5056685;28;20209;-96